• Join FlightAware (Why Join?)
  • Login
  • US Flag 
05:28AM EDT


 

Airport Tracker/Info


-or-


 

Live Flight TrackerFlight Track Log ✈ CTL16 ✈ 14-Jun-2013 ✈ KHAO - KBKL

Flight Track Log - Related Links

Times and Time Zones

All times are in EDT time to prevent confusion due to time zone crossing. See the CTL16 flight status page for this flight to view local times or setup timezone preferences in your user account.

Time Position Orientation Groundspeed Altitude Reporting Facility
EDT Latitude Longitude Course Direction KTS MPH feet Rate Location/Type
08:33PM 39.3833 -84.4667 46° Northeast 110 127 2,000  Level Cincinnati TRACON
08:33PM 39.3933 -84.4531 46° Northeast 115 132 2,600 780 Climbing Indianapolis Center
08:35PM 39.4222 -84.4183 43° Northeast 130 150 3,400 780 Climbing Indianapolis Center
08:36PM 39.4492 -84.3872 42° Northeast 129 148 4,300 780 Climbing Indianapolis Center
08:37PM 39.4756 -84.3564 42° Northeast 128 147 5,100 720 Climbing Indianapolis Center
08:37PM 39.4861 -84.3439 42° Northeast 127 146 5,400 660 Climbing Indianapolis Center
08:38PM 39.5025 -84.3217 46° Northeast 131 151 5,800 720 Climbing Indianapolis Center
08:39PM 39.5281 -84.2925 41° Northeast 127 146 6,600 540 Climbing Indianapolis Center
08:40PM 39.5581 -84.2561 43° Northeast 129 148 7,000 180 Climbing Indianapolis Center
08:41PM 39.5856 -84.2217 44° Northeast 147 169 7,000  Level Indianapolis Center
08:42PM 39.6217 -84.1833 39° Northeast 162 186 7,100  Climbing Indianapolis Center
08:43PM 39.6550 -84.1378 46° Northeast 170 196 7,000 120 Descending Indianapolis Center
08:44PM 39.6894 -84.0967 43° Northeast 168 193 7,400 540 Climbing Indianapolis Center
08:45PM 39.7203 -84.0578 44° Northeast 129 148 8,200 720 Climbing Indianapolis Center
08:46PM 39.7439 -84.0261 46° Northeast 125 144 8,900 360 Climbing Indianapolis Center
08:47PM 39.7717 -83.9911 44° Northeast 151 174 9,000  Climbing Indianapolis Center
08:48PM 39.8042 -83.9492 45° Northeast 161 185 9,000  Level Indianapolis Center
08:49PM 39.8367 -83.9072 45° Northeast 165 190 9,000 -60 Level Indianapolis Center
08:50PM 39.8714 -83.8653 43° Northeast 165 190 8,900  Descending Indianapolis Center
08:51PM 39.8992 -83.8281 46° Northeast 162 186 9,000  Climbing Indianapolis Center
08:52PM 39.9317 -83.7861 45° Northeast 161 185 9,000  Level Indianapolis Center
08:53PM 39.9642 -83.7467 43° Northeast 163 188 9,000  Level Indianapolis Center
08:54PM 39.9942 -83.7069 45° Northeast 166 191 9,000  Level Indianapolis Center
08:54PM 40.0017 -83.6975 44° Northeast 166 191 9,000  Level Indianapolis Center
08:55PM 40.0311 -83.6597 44° Northeast 168 193 9,000  Level Indianapolis Center
08:56PM 40.0656 -83.6203 41° Northeast 163 188 9,000 -60 Level Indianapolis Center
08:57PM 40.1003 -83.5756 45° Northeast 163 188 8,900 -60 Descending Indianapolis Center
08:58PM 40.1328 -83.5333 45° Northeast 160 184 8,900  Level Indianapolis Center
08:59PM 40.1694 -83.4858 45° Northeast 162 186 8,900  Level Indianapolis Center
09:00PM 40.1928 -83.4561 44° Northeast 155 178 9,000  Climbing Indianapolis Center
09:00PM 40.1983 -83.4475 50° Northeast 158 182 8,900 -120 Descending Indianapolis Center
09:01PM 40.2208 -83.4158 47° Northeast 162 186 8,900  Level Indianapolis Center
09:01PM 40.2303 -83.4042 43° Northeast 162 186 8,900  Level Indianapolis Center
09:02PM 40.2597 -83.3686 43° Northeast 154 177 8,900  Level Indianapolis Center
09:03PM 40.2900 -83.3258 47° Northeast 156 180 8,900  Level Indianapolis Center
09:04PM 40.3219 -83.2886 42° Northeast 165 190 8,900  Level Indianapolis Center
09:04PM 40.3314 -83.2744 49° Northeast 161 185 8,900  Level Indianapolis Center
09:05PM 40.3564 -83.2436 43° Northeast 163 188 8,900  Level Indianapolis Center
09:06PM 40.3961 -83.1897 46° Northeast 163 188 8,900  Level Indianapolis Center
09:07PM 40.4289 -83.1475 44° Northeast 161 185 9,000  Climbing Indianapolis Center
09:08PM 40.4603 -83.1064 45° Northeast 157 181 8,900 -60 Descending Indianapolis Center
09:09PM 40.4908 -83.0614 48° Northeast 162 186 8,900  Level Indianapolis Center
09:10PM 40.5250 -83.0189 43° Northeast 163 188 8,900  Level Indianapolis Center
09:11PM 40.5572 -82.9778 44° Northeast 161 185 8,900  Level Indianapolis Center
09:12PM 40.5917 -82.9369 42° Northeast 164 189 8,900 -60 Level Indianapolis Center
09:13PM 40.6225 -82.8922 48° Northeast 164 189 8,800 -60 Descending Indianapolis Center
09:15PM 40.6561 -82.8483 45° Northeast 168 193 8,800 60 Level Indianapolis Center
09:16PM 40.6864 -82.8039 48° Northeast 162 186 9,000 60 Climbing Indianapolis Center
09:17PM 40.7181 -82.7614 45° Northeast 161 185 9,000 -60 Level Indianapolis Center
09:18PM 40.7547 -82.7097 47° Northeast 163 188 8,900 -60 Descending Indianapolis Center
09:19PM 40.7875 -82.6689 43° Northeast 161 185 8,900  Level Indianapolis Center
09:20PM 40.8194 -82.6253 46° Northeast 163 188 8,900  Level Indianapolis Center